Time;durP1;ratioP1;P1;durP2;ratioP2;P2;SDS_P1;SDS_P2;PMS_P1;PMS_P2;Temp;Humidity;BMP_temperature;BMP_pressure;BME280_temperature;BME280_humidity;BME280_pressure;Samples;Min_cycle;Max_cycle;Signal;HPM_P1;HPM_P2
2023/05/19 05:00:29;;;;;;;5.30;3.03;;;14.00;97.20;;;;;;1714275;28;20186;-73
2023/05/19 05:01:24;;;;;;;4.70;3.40;;;14.00;97.20;;;;;;1714548;28;20610;-73
2023/05/19 05:02:16;;;;;;;10.18;3.88;;;14.00;97.20;;;;;;1714586;28;20566;-73
2023/05/19 05:03:07;;;;;;;4.75;3.25;;;14.00;97.20;;;;;;1714535;28;20209;-73
2023/05/19 05:03:59;;;;;;;6.25;3.67;;;14.00;97.20;;;;;;1714238;28;20198;-72
2023/05/19 05:04:53;;;;;;;4.05;3.20;;;14.00;97.20;;;;;;1714561;28;20319;-72
2023/05/19 05:05:44;;;;;;;4.40;3.28;;;14.00;97.20;;;;;;1714629;28;20213;-73
2023/05/19 05:06:37;;;;;;;5.87;3.73;;;14.00;97.20;;;;;;1714527;28;20221;-72
2023/05/19 05:07:28;;;;;;;8.82;3.92;;;14.00;97.20;;;;;;1714471;28;20506;-72
2023/05/19 05:08:22;;;;;;;4.23;3.43;;;14.00;97.20;;;;;;1714202;28;20272;-73
2023/05/19 05:09:13;;;;;;;6.85;3.45;;;14.00;97.20;;;;;;1714566;28;20956;-73
2023/05/19 05:10:06;;;;;;;8.70;3.40;;;14.00;97.20;;;;;;1714575;28;20613;-72
2023/05/19 05:10:57;;;;;;;4.85;3.30;;;14.10;97.20;;;;;;1714472;28;20234;-73
2023/05/19 05:11:50;;;;;;;7.45;3.90;;;14.10;97.20;;;;;;1714488;28;20736;-72
2023/05/19 05:12:41;;;;;;;7.07;3.80;;;14.10;97.20;;;;;;1713721;28;20212;-73
2023/05/19 05:13:33;;;;;;;4.53;3.28;;;14.10;97.20;;;;;;1714212;28;20738;-72
2023/05/19 05:14:25;;;;;;;5.82;3.53;;;14.10;97.20;;;;;;1714440;28;20228;-72
2023/05/19 05:15:17;;;;;;;5.28;4.03;;;14.10;97.20;;;;;;1714369;28;20620;-73
2023/05/19 05:16:12;;;;;;;3.78;3.45;;;14.10;97.20;;;;;;1714450;28;20240;-73
2023/05/19 05:17:04;;;;;;;8.68;3.90;;;14.10;97.20;;;;;;1714517;28;20344;-72
2023/05/19 05:17:55;;;;;;;5.80;3.10;;;14.20;97.20;;;;;;1714527;28;20629;-73
2023/05/19 05:18:47;;;;;;;8.20;3.55;;;14.20;97.20;;;;;;1714235;28;20212;-73
2023/05/19 05:19:39;;;;;;;6.65;3.00;;;14.20;97.20;;;;;;1714433;28;20217;-72
2023/05/19 05:20:32;;;;;;;4.53;3.35;;;14.20;97.20;;;;;;1714409;28;20703;-73
2023/05/19 05:21:23;;;;;;;5.30;3.78;;;14.20;97.20;;;;;;1714488;28;20555;-73
2023/05/19 05:22:16;;;;;;;7.55;3.85;;;14.20;97.20;;;;;;1714483;28;20197;-73
2023/05/19 05:23:08;;;;;;;5.13;3.30;;;14.20;97.20;;;;;;1714408;28;20202;-73
2023/05/19 05:24:00;;;;;;;7.15;4.63;;;14.20;97.20;;;;;;1714164;28;20237;-72
2023/05/19 05:24:51;;;;;;;4.22;3.83;;;14.20;97.20;;;;;;1714267;28;20198;-73
2023/05/19 05:25:44;;;;;;;7.45;3.65;;;14.20;97.20;;;;;;1714416;28;20201;-73
2023/05/19 05:26:35;;;;;;;6.63;4.07;;;14.20;97.20;;;;;;1714452;28;20689;-73
2023/05/19 05:27:26;;;;;;;5.47;3.30;;;14.20;97.20;;;;;;1714394;28;20212;-73
2023/05/19 05:28:18;;;;;;;6.10;3.50;;;14.30;97.20;;;;;;1714310;28;20500;-73
2023/05/19 05:29:09;;;;;;;7.50;4.18;;;14.30;97.20;;;;;;1714390;28;20810;-73
2023/05/19 05:30:01;;;;;;;8.00;3.70;;;14.30;97.20;;;;;;1714377;28;20576;-73
2023/05/19 05:30:51;;;;;;;5.20;4.20;;;14.30;97.20;;;;;;1719054;28;20268;-73
2023/05/19 05:31:44;;;;;;;5.83;4.27;;;14.30;97.20;;;;;;1721032;28;20204;-73
2023/05/19 05:32:35;;;;;;;6.55;3.38;;;14.30;97.20;;;;;;1721112;28;20216;-72
2023/05/19 05:33:27;;;;;;;7.13;3.40;;;14.30;97.20;;;;;;1720810;28;20201;-72
2023/05/19 05:34:18;;;;;;;6.50;3.58;;;14.40;97.20;;;;;;1720670;28;20976;-73
2023/05/19 05:35:10;;;;;;;7.40;3.73;;;14.40;97.20;;;;;;1720959;28;20611;-72
2023/05/19 05:36:01;;;;;;;4.20;3.80;;;14.40;97.20;;;;;;1721042;28;20657;-72
2023/05/19 05:36:52;;;;;;;9.20;4.57;;;14.50;97.20;;;;;;1721038;28;20724;-72
2023/05/19 05:37:43;;;;;;;16.30;4.28;;;14.50;97.20;;;;;;1720988;28;20205;-72
2023/05/19 05:38:34;;;;;;;10.93;5.00;;;14.50;97.20;;;;;;1720974;28;20672;-73
2023/05/19 05:39:27;;;;;;;11.68;4.63;;;14.60;97.20;;;;;;1721029;28;20511;-73
2023/05/19 05:40:18;;;;;;;17.08;6.00;;;14.60;97.20;;;;;;1720943;28;20554;-73
2023/05/19 05:41:10;;;;;;;13.20;5.00;;;14.70;97.20;;;;;;1720945;28;20322;-73
2023/05/19 05:42:00;;;;;;;12.13;6.05;;;14.70;97.20;;;;;;1720975;28;20447;-73
2023/05/19 05:42:54;;;;;;;12.90;5.13;;;14.70;97.20;;;;;;1721057;28;20193;-73
2023/05/19 05:43:45;;;;;;;14.35;5.63;;;14.80;97.20;;;;;;1720670;28;20746;-73
2023/05/19 05:44:36;;;;;;;9.47;4.90;;;14.80;97.20;;;;;;1720760;28;20632;-73
2023/05/19 05:45:27;;;;;;;11.65;4.35;;;14.80;97.20;;;;;;1720901;28;20201;-72
2023/05/19 05:46:19;;;;;;;10.17;4.13;;;14.90;97.20;;;;;;1721070;28;20287;-73
2023/05/19 05:47:12;;;;;;;9.65;3.58;;;14.90;97.20;;;;;;1720931;28;20483;-72
2023/05/19 05:48:05;;;;;;;6.53;3.85;;;14.90;97.20;;;;;;1720918;28;20212;-73
2023/05/19 05:48:56;;;;;;;5.85;3.83;;;14.90;97.20;;;;;;1721062;28;20992;-72
2023/05/19 05:49:49;;;;;;;5.85;3.70;;;14.90;97.20;;;;;;1720929;28;20260;-72
2023/05/19 05:50:41;;;;;;;10.10;4.75;;;14.90;97.20;;;;;;1720916;28;20234;-73
2023/05/19 05:51:33;;;;;;;7.72;4.10;;;15.00;97.20;;;;;;1720913;28;20291;-73
2023/05/19 05:52:28;;;;;;;11.68;4.00;;;15.00;97.20;;;;;;1720941;28;20235;-73
2023/05/19 05:53:21;;;;;;;8.50;4.53;;;15.00;97.20;;;;;;1720722;28;20735;-73
2023/05/19 05:54:12;;;;;;;8.05;4.40;;;15.10;97.20;;;;;;1720994;28;20197;-73
2023/05/19 05:55:05;;;;;;;7.03;3.60;;;15.10;97.20;;;;;;1720516;28;20275;-73
2023/05/19 05:55:56;;;;;;;9.50;4.22;;;15.10;97.20;;;;;;1720840;28;20772;-73
2023/05/19 05:56:49;;;;;;;8.70;3.92;;;15.10;97.20;;;;;;1720953;28;20205;-72
2023/05/19 05:57:40;;;;;;;9.82;3.90;;;15.20;97.20;;;;;;1720923;28;20593;-73
2023/05/19 05:58:33;;;;;;;8.20;4.32;;;15.20;97.20;;;;;;1720906;28;20259;-72
2023/05/19 05:59:25;;;;;;;8.32;3.83;;;15.30;97.20;;;;;;1720972;28;20208;-74
2023/05/19 06:00:18;;;;;;;8.05;3.67;;;15.30;97.20;;;;;;1720776;28;20213;-73
2023/05/19 06:01:09;;;;;;;10.70;4.30;;;15.30;97.20;;;;;;1720893;28;20221;-74
2023/05/19 06:02:01;;;;;;;6.60;4.50;;;15.30;97.20;;;;;;1720847;28;20197;-73
2023/05/19 06:02:53;;;;;;;4.57;3.80;;;15.40;97.20;;;;;;1720957;28;20212;-72
2023/05/19 06:03:45;;;;;;;6.88;3.70;;;15.40;97.20;;;;;;1720534;28;20205;-72
2023/05/19 06:04:36;;;;;;;6.60;3.95;;;15.50;97.20;;;;;;1720648;28;20212;-72
2023/05/19 06:05:27;;;;;;;7.93;3.80;;;15.50;97.20;;;;;;1720801;28;20215;-73
2023/05/19 06:06:18;;;;;;;7.32;3.70;;;15.50;97.20;;;;;;1720772;28;20212;-73
2023/05/19 06:07:10;;;;;;;3.70;3.33;;;15.60;97.20;;;;;;1720721;28;20201;-72
2023/05/19 06:08:01;;;;;;;5.70;3.83;;;15.60;97.20;;;;;;1720744;28;20318;-73
2023/05/19 06:08:52;;;;;;;5.63;3.47;;;15.70;97.20;;;;;;1720924;28;20205;-72
2023/05/19 06:09:43;;;;;;;5.10;4.20;;;15.70;97.20;;;;;;1720745;28;20585;-73
2023/05/19 06:10:37;;;;;;;8.17;3.67;;;15.70;97.20;;;;;;1720821;28;20248;-72
2023/05/19 06:11:28;;;;;;;6.32;3.55;;;15.80;97.20;;;;;;1720895;28;20209;-72
2023/05/19 06:12:21;;;;;;;8.40;3.33;;;15.80;97.20;;;;;;1720829;28;20280;-72
2023/05/19 06:13:12;;;;;;;7.10;3.88;;;15.80;97.20;;;;;;1720413;28;20213;-73
2023/05/19 06:14:04;;;;;;;8.80;5.00;;;15.90;97.20;;;;;;1720768;28;20229;-73
2023/05/19 06:14:54;;;;;;;5.13;4.03;;;15.90;97.20;;;;;;1720503;28;20197;-72
2023/05/19 06:15:46;;;;;;;5.90;4.97;;;15.90;97.20;;;;;;1720821;28;20221;-73
2023/05/19 06:16:37;;;;;;;8.70;3.65;;;16.00;97.20;;;;;;1720814;28;20703;-73
2023/05/19 06:17:29;;;;;;;6.87;3.97;;;16.00;97.20;;;;;;1720760;28;20572;-73
2023/05/19 06:18:21;;;;;;;9.00;5.03;;;16.00;97.20;;;;;;1720726;28;20208;-72
2023/05/19 06:19:12;;;;;;;8.65;4.30;;;16.10;97.20;;;;;;1720875;28;20201;-72
2023/05/19 06:20:04;;;;;;;11.85;5.10;;;16.10;97.20;;;;;;1720815;28;20216;-71
2023/05/19 06:20:56;;;;;;;11.73;4.30;;;16.10;97.20;;;;;;1720778;28;20219;-72
2023/05/19 06:21:47;;;;;;;6.75;4.10;;;16.20;97.20;;;;;;1720731;28;20313;-73
2023/05/19 06:22:38;;;;;;;6.93;3.90;;;16.20;97.20;;;;;;1720791;28;20293;-72
2023/05/19 06:23:29;;;;;;;5.38;3.45;;;16.20;97.20;;;;;;1720532;28;20335;-73
2023/05/19 06:24:21;;;;;;;8.50;4.00;;;16.20;97.20;;;;;;1720723;28;20255;-72
2023/05/19 06:25:12;;;;;;;8.43;4.40;;;16.30;97.20;;;;;;1720136;28;20543;-72
2023/05/19 06:26:04;;;;;;;6.30;4.30;;;16.30;97.20;;;;;;1720735;28;20208;-73
2023/05/19 06:26:55;;;;;;;6.97;4.78;;;16.30;97.20;;;;;;1720751;28;20240;-72
2023/05/19 06:27:47;;;;;;;9.00;4.00;;;16.40;97.20;;;;;;1720698;28;20205;-72
2023/05/19 06:28:37;;;;;;;5.75;3.50;;;16.40;97.20;;;;;;1720768;28;20216;-73
2023/05/19 06:29:29;;;;;;;6.30;3.80;;;16.50;97.20;;;;;;1720665;28;20201;-72
2023/05/19 06:30:20;;;;;;;6.35;3.88;;;16.50;97.20;;;;;;1720453;28;20201;-72
2023/05/19 06:31:11;;;;;;;5.00;3.30;;;16.50;97.20;;;;;;1720688;28;20197;-72
2023/05/19 06:32:02;;;;;;;5.45;3.92;;;16.50;97.20;;;;;;1720602;28;20476;-72
2023/05/19 06:32:54;;;;;;;5.97;4.35;;;16.50;97.20;;;;;;1720723;28;20197;-72
2023/05/19 06:33:46;;;;;;;6.20;3.90;;;16.50;97.20;;;;;;1720306;28;20307;-72
2023/05/19 06:34:39;;;;;;;3.70;3.28;;;16.50;97.20;;;;;;1720411;28;20208;-72
2023/05/19 06:35:30;;;;;;;6.55;4.00;;;16.50;97.20;;;;;;1720521;28;20288;-72
2023/05/19 06:36:21;;;;;;;4.73;4.00;;;16.50;97.20;;;;;;1720709;28;20324;-72
2023/05/19 06:37:15;;;;;;;5.60;3.78;;;16.50;97.20;;;;;;1720666;28;20444;-72
2023/05/19 06:38:07;;;;;;;5.13;3.67;;;16.50;97.20;;;;;;1720637;28;20232;-72
2023/05/19 06:38:58;;;;;;;6.47;3.97;;;16.60;97.20;;;;;;1720606;28;20205;-72
2023/05/19 06:39:51;;;;;;;5.40;3.80;;;16.60;97.20;;;;;;1720530;28;20205;-72
2023/05/19 06:40:41;;;;;;;6.03;3.80;;;16.60;97.20;;;;;;1720544;28;20288;-72
2023/05/19 06:41:33;;;;;;;5.60;3.90;;;16.60;97.20;;;;;;1720727;28;20204;-72
2023/05/19 06:42:24;;;;;;;7.28;4.10;;;16.60;97.20;;;;;;1720598;28;20205;-72
2023/05/19 06:43:16;;;;;;;10.10;4.10;;;16.60;97.20;;;;;;1720339;28;20207;-72
2023/05/19 06:44:07;;;;;;;6.53;3.95;;;16.70;97.20;;;;;;1720627;28;20201;-72
2023/05/19 06:45:00;;;;;;;9.18;4.45;;;16.70;97.20;;;;;;1720260;28;20197;-72
2023/05/19 06:45:51;;;;;;;6.25;4.30;;;16.70;97.20;;;;;;1720601;28;20209;-73
2023/05/19 06:46:43;;;;;;;6.10;3.57;;;16.70;97.20;;;;;;1720594;28;20211;-72
2023/05/19 06:47:33;;;;;;;6.22;4.10;;;16.70;97.20;;;;;;1720664;28;20201;-72
2023/05/19 06:48:25;;;;;;;7.27;3.97;;;16.80;97.20;;;;;;1720534;28;20204;-73
2023/05/19 06:49:17;;;;;;;8.52;5.03;;;16.80;97.20;;;;;;1720625;28;20201;-73
2023/05/19 06:50:10;;;;;;;5.65;3.80;;;16.80;97.20;;;;;;1720539;28;20599;-73
2023/05/19 06:51:00;;;;;;;7.18;3.53;;;16.90;97.20;;;;;;1720286;28;20700;-72
2023/05/19 06:51:52;;;;;;;9.00;4.03;;;16.90;97.20;;;;;;1720651;28;20716;-73
2023/05/19 06:52:43;;;;;;;7.95;3.70;;;16.90;97.20;;;;;;1720552;28;20212;-72
2023/05/19 06:53:34;;;;;;;8.87;3.83;;;16.90;97.20;;;;;;1720358;28;20203;-72
2023/05/19 06:54:25;;;;;;;6.10;3.78;;;17.00;97.20;;;;;;1720392;28;20300;-72
2023/05/19 06:55:17;;;;;;;5.20;4.00;;;17.00;97.20;;;;;;1720075;28;20205;-73
2023/05/19 06:56:08;;;;;;;8.48;4.00;;;17.00;97.20;;;;;;1720503;28;20232;-72
2023/05/19 06:56:59;;;;;;;19.17;4.93;;;17.00;97.20;;;;;;1720567;28;20203;-73
2023/05/19 06:57:50;;;;;;;35.95;7.68;;;17.00;97.20;;;;;;1720644;28;20688;-73
2023/05/19 06:58:42;;;;;;;14.00;4.83;;;17.10;97.20;;;;;;1720656;28;20628;-73
2023/05/19 06:59:33;;;;;;;9.95;4.40;;;17.10;97.20;;;;;;1720554;28;20228;-72
2023/05/19 07:00:25;;;;;;;10.67;4.27;;;17.10;97.20;;;;;;1720672;28;20288;-72
2023/05/19 07:01:16;;;;;;;6.75;4.18;;;17.20;97.20;;;;;;1720763;28;20216;-73
2023/05/19 07:02:08;;;;;;;55.30;8.13;;;17.20;97.20;;;;;;1720449;28;20197;-72
2023/05/19 07:03:00;;;;;;;7.03;4.00;;;17.20;97.20;;;;;;1720549;28;20208;-72
2023/05/19 07:03:51;;;;;;;12.38;4.60;;;17.30;97.20;;;;;;1720254;28;20676;-72
2023/05/19 07:04:44;;;;;;;10.50;4.60;;;17.30;97.20;;;;;;1720246;28;20692;-72
2023/05/19 07:05:35;;;;;;;10.25;5.25;;;17.40;97.20;;;;;;1720469;28;20584;-74
2023/05/19 07:06:26;;;;;;;8.75;3.95;;;17.40;97.20;;;;;;1720446;28;20297;-73
2023/05/19 07:07:17;;;;;;;7.30;4.45;;;17.40;97.20;;;;;;1719909;28;20201;-73
2023/05/19 07:08:09;;;;;;;8.37;4.70;;;17.40;97.20;;;;;;1720515;28;20205;-72
2023/05/19 07:09:00;;;;;;;8.38;4.05;;;17.40;97.20;;;;;;1720439;28;20600;-73
2023/05/19 07:09:51;;;;;;;8.50;4.30;;;17.40;97.20;;;;;;1720275;28;20294;-70
2023/05/19 07:10:42;;;;;;;8.50;4.57;;;17.40;97.20;;;;;;1720057;28;20212;-72
2023/05/19 07:11:34;;;;;;;8.83;4.20;;;17.40;97.20;;;;;;1720440;28;20208;-74
2023/05/19 07:12:25;;;;;;;6.47;4.40;;;17.40;97.20;;;;;;1719777;28;20711;-73
2023/05/19 07:13:17;;;;;;;14.57;4.50;;;17.40;97.20;;;;;;1720176;28;20189;-72
2023/05/19 07:14:07;;;;;;;8.15;4.13;;;17.40;97.20;;;;;;1720440;28;20661;-73
2023/05/19 07:14:59;;;;;;;8.43;4.57;;;17.40;97.20;;;;;;1720386;28;20695;-73
2023/05/19 07:15:51;;;;;;;20.95;5.78;;;17.40;97.20;;;;;;1720456;28;20208;-73
2023/05/19 07:16:42;;;;;;;7.88;4.88;;;17.40;97.20;;;;;;1720587;28;20264;-72
2023/05/19 07:17:33;;;;;;;7.25;4.13;;;17.50;97.20;;;;;;1715082;28;20205;-74
2023/05/19 07:18:25;;;;;;;7.70;4.30;;;17.50;97.20;;;;;;1717852;28;20203;-73
2023/05/19 07:19:18;;;;;;;7.68;4.85;;;17.50;97.20;;;;;;1720884;28;20204;-73
2023/05/19 07:20:12;;;;;;;8.25;4.07;;;17.50;97.20;;;;;;1721911;28;20211;-73
2023/05/19 07:21:03;;;;;;;12.60;4.70;;;17.50;97.20;;;;;;1721889;28;20201;-73
2023/05/19 07:21:55;;;;;;;7.37;4.30;;;17.50;97.20;;;;;;1721988;28;20197;-73
2023/05/19 07:22:46;;;;;;;9.93;4.53;;;17.50;97.20;;;;;;1722099;28;20452;-73
2023/05/19 07:23:38;;;;;;;8.93;4.67;;;17.50;97.20;;;;;;1721648;28;20228;-73
2023/05/19 07:24:29;;;;;;;11.02;4.18;;;17.50;97.20;;;;;;1721832;28;20235;-72
2023/05/19 07:25:21;;;;;;;8.55;4.70;;;17.50;97.20;;;;;;1721788;28;20283;-73
2023/05/19 07:26:12;;;;;;;11.52;5.25;;;17.50;97.20;;;;;;1721922;28;20699;-72
2023/05/19 07:27:04;;;;;;;14.27;4.60;;;17.60;97.20;;;;;;1721761;28;20683;-73
2023/05/19 07:27:55;;;;;;;7.28;4.05;;;17.60;97.20;;;;;;1721653;28;20197;-73
2023/05/19 07:28:47;;;;;;;7.00;4.53;;;17.70;97.20;;;;;;1721784;28;20682;-72
2023/05/19 07:29:37;;;;;;;7.75;4.10;;;17.70;97.20;;;;;;1721849;28;20433;-73
2023/05/19 07:30:29;;;;;;;7.33;4.60;;;17.80;97.20;;;;;;1721586;28;20292;-73
2023/05/19 07:31:20;;;;;;;8.13;3.70;;;17.80;97.20;;;;;;1721408;28;20205;-73
2023/05/19 07:32:12;;;;;;;6.63;4.27;;;17.90;97.20;;;;;;1721833;28;20193;-72
2023/05/19 07:33:02;;;;;;;8.18;4.68;;;17.90;97.20;;;;;;1721705;28;20440;-71
2023/05/19 07:33:54;;;;;;;6.87;4.37;;;18.00;97.20;;;;;;1721500;28;20199;-72
2023/05/19 07:34:45;;;;;;;7.03;3.97;;;18.10;97.20;;;;;;1721740;28;20216;-72
2023/05/19 07:35:39;;;;;;;7.57;3.78;;;18.20;97.20;;;;;;1721765;28;20221;-72
2023/05/19 07:36:30;;;;;;;20.33;4.40;;;18.30;97.20;;;;;;1721782;28;20224;-72
2023/05/19 07:37:21;;;;;;;24.77;5.97;;;18.40;97.20;;;;;;1721803;28;20276;-71
2023/05/19 07:38:12;;;;;;;14.25;4.28;;;18.50;97.20;;;;;;1721266;28;20444;-72
2023/05/19 07:39:04;;;;;;;11.33;5.00;;;18.50;97.20;;;;;;1721476;28;20203;-72
2023/05/19 07:39:55;;;;;;;20.05;4.82;;;18.60;97.20;;;;;;1721604;28;20201;-71
2023/05/19 07:40:47;;;;;;;17.43;5.17;;;18.60;97.20;;;;;;1721550;28;20221;-72
2023/05/19 07:41:38;;;;;;;9.65;4.10;;;18.70;97.20;;;;;;1721784;28;20210;-73
2023/05/19 07:42:29;;;;;;;6.97;4.20;;;18.70;97.20;;;;;;1721703;28;20211;-70
2023/05/19 07:43:20;;;;;;;20.08;4.85;;;18.70;97.20;;;;;;1721358;28;20209;-71
2023/05/19 07:44:12;;;;;;;8.63;4.43;;;18.70;97.20;;;;;;1721166;28;20228;-71
2023/05/19 07:45:03;;;;;;;11.38;4.65;;;18.70;97.20;;;;;;1721634;28;20228;-72
2023/05/19 07:45:55;;;;;;;6.45;4.40;;;18.70;97.20;;;;;;1721561;28;20576;-70
2023/05/19 07:46:47;;;;;;;10.60;4.93;;;18.70;97.20;;;;;;1721466;28;20201;-71
2023/05/19 07:47:38;;;;;;;16.00;4.35;;;18.70;97.20;;;;;;1721729;28;20213;-71
2023/05/19 07:48:29;;;;;;;15.05;4.85;;;18.70;97.20;;;;;;1721641;28;20216;-71
2023/05/19 07:49:21;;;;;;;8.50;4.20;;;18.70;97.20;;;;;;1719620;28;20212;-77
2023/05/19 07:50:12;;;;;;;15.23;4.25;;;18.60;97.20;;;;;;1721170;28;20205;-76
2023/05/19 07:51:08;;;;;;;10.73;4.43;;;18.60;97.20;;;;;;1721065;28;20577;-75
2023/05/19 07:54:22;;;;;;;7.43;4.15;;;18.50;97.20;;;;;;1725691;28;20659;-75
2023/05/19 07:55:13;;;;;;;12.75;4.65;;;18.40;97.20;;;;;;1726799;28;20208;-75
2023/05/19 07:56:05;;;;;;;9.07;4.20;;;18.40;97.20;;;;;;1728099;28;20687;-75
2023/05/19 07:56:56;;;;;;;10.27;4.28;;;18.30;97.20;;;;;;1728075;28;20737;-75
2023/05/19 07:57:47;;;;;;;13.17;4.83;;;18.30;97.20;;;;;;1728044;28;20656;-75
2023/05/19 07:58:38;;;;;;;8.50;3.95;;;18.20;97.20;;;;;;1728146;28;20212;-76
2023/05/19 07:59:30;;;;;;;7.17;3.93;;;18.20;97.20;;;;;;1727912;28;20205;-75
2023/05/19 08:00:21;;;;;;;12.43;4.63;;;18.10;97.20;;;;;;1727605;28;20200;-71
2023/05/19 08:01:13;;;;;;;12.82;4.55;;;18.10;97.20;;;;;;1727773;28;20200;-76
2023/05/19 08:02:04;;;;;;;10.00;4.15;;;18.00;97.20;;;;;;1728302;28;20660;-73
2023/05/19 08:02:56;;;;;;;9.93;4.73;;;18.00;97.20;;;;;;1723366;28;20593;-73
2023/05/19 08:03:48;;;;;;;6.30;3.70;;;17.90;97.20;;;;;;1728042;28;20451;-72
2023/05/19 08:04:39;;;;;;;12.68;4.85;;;17.90;97.20;;;;;;1728224;28;20668;-72
2023/05/19 08:05:30;;;;;;;19.07;4.77;;;17.90;97.20;;;;;;1728014;28;20580;-71
2023/05/19 08:06:24;;;;;;;12.02;4.55;;;17.90;97.20;;;;;;1727998;28;20766;-72
2023/05/19 08:07:15;;;;;;;7.47;4.22;;;17.80;97.20;;;;;;1727945;28;20196;-73
2023/05/19 08:08:06;;;;;;;6.07;4.10;;;17.80;97.20;;;;;;1728163;28;20203;-74
2023/05/19 08:08:58;;;;;;;9.37;4.60;;;17.80;97.20;;;;;;1728110;28;20197;-74
2023/05/19 08:09:49;;;;;;;10.38;4.32;;;17.70;97.20;;;;;;1728007;28;20622;-73
2023/05/19 08:10:40;;;;;;;10.53;3.90;;;17.70;97.20;;;;;;1727893;28;20204;-73
2023/05/19 08:11:31;;;;;;;13.25;4.53;;;17.70;97.20;;;;;;1727947;28;20269;-74
2023/05/19 08:12:23;;;;;;;12.30;5.57;;;17.70;97.20;;;;;;1727592;28;20671;-74
2023/05/19 08:13:14;;;;;;;12.68;4.22;;;17.70;97.20;;;;;;1727772;28;20668;-73
2023/05/19 08:14:05;;;;;;;10.30;4.30;;;17.70;97.20;;;;;;1728096;28;20664;-73
2023/05/19 08:14:56;;;;;;;11.70;4.25;;;17.70;97.20;;;;;;1727586;28;20204;-72
2023/05/19 08:15:48;;;;;;;11.63;3.83;;;17.70;97.20;;;;;;1728122;28;20255;-73
2023/05/19 08:16:41;;;;;;;12.82;4.43;;;17.70;97.20;;;;;;1727902;28;20494;-73
2023/05/19 08:17:32;;;;;;;10.80;4.05;;;17.70;97.20;;;;;;1727866;28;20214;-74
2023/05/19 08:18:23;;;;;;;5.53;3.50;;;17.70;97.20;;;;;;1727518;28;20671;-73
2023/05/19 08:19:15;;;;;;;9.17;3.50;;;17.70;97.20;;;;;;1727611;28;20547;-74
2023/05/19 08:20:07;;;;;;;9.27;4.53;;;17.70;97.20;;;;;;1727983;28;20200;-74
2023/05/19 08:20:59;;;;;;;8.85;4.45;;;17.60;97.20;;;;;;1727295;28;20695;-74
2023/05/19 08:21:51;;;;;;;7.90;4.03;;;17.60;97.20;;;;;;1727095;28;20197;-74
2023/05/19 08:22:42;;;;;;;5.72;3.70;;;17.60;97.20;;;;;;1727152;28;20217;-74
2023/05/19 08:23:33;;;;;;;6.75;4.13;;;17.60;97.20;;;;;;1727547;28;20201;-73
2023/05/19 08:24:25;;;;;;;7.17;4.00;;;17.60;97.20;;;;;;1727689;28;20211;-74
2023/05/19 08:25:16;;;;;;;10.57;5.00;;;17.60;97.20;;;;;;1727895;28;20572;-74
2023/05/19 08:26:07;;;;;;;11.63;4.27;;;17.60;97.20;;;;;;1728033;28;20229;-74
2023/05/19 08:26:58;;;;;;;7.47;4.10;;;17.60;97.20;;;;;;1727861;28;20444;-74
2023/05/19 08:27:50;;;;;;;7.50;3.97;;;17.60;97.20;;;;;;1726602;28;20192;-73
2023/05/19 08:28:42;;;;;;;7.03;4.30;;;17.60;97.20;;;;;;1725945;28;20455;-72
2023/05/19 08:29:35;;;;;;;7.85;4.10;;;17.60;97.20;;;;;;1727992;28;20259;-73
2023/05/19 08:30:26;;;;;;;10.50;5.18;;;17.60;97.20;;;;;;1727560;28;20204;-76
2023/05/19 08:31:18;;;;;;;7.10;4.03;;;17.60;97.20;;;;;;1724784;28;20235;-73
2023/05/19 08:32:08;;;;;;;9.15;3.92;;;17.60;97.20;;;;;;1721292;28;20213;-74
2023/05/19 08:33:01;;;;;;;24.23;5.90;;;17.70;97.20;;;;;;1725689;28;20208;-74
2023/05/19 08:33:51;;;;;;;10.20;4.43;;;17.70;97.20;;;;;;1728042;28;20696;-73
2023/05/19 08:34:43;;;;;;;6.67;3.50;;;17.70;97.20;;;;;;1727908;28;20602;-73
2023/05/19 08:35:34;;;;;;;9.85;4.63;;;17.70;97.20;;;;;;1728074;28;20654;-74
2023/05/19 08:36:26;;;;;;;7.95;3.50;;;17.70;97.20;;;;;;1727651;28;20608;-73
2023/05/19 08:37:18;;;;;;;11.63;4.00;;;17.70;97.20;;;;;;1728130;28;20237;-73
2023/05/19 08:38:10;;;;;;;7.88;3.75;;;17.60;97.20;;;;;;1727863;28;20226;-72
2023/05/19 08:39:01;;;;;;;7.30;4.05;;;17.60;97.20;;;;;;1727836;28;20213;-72
2023/05/19 08:39:52;;;;;;;8.23;4.20;;;17.70;97.20;;;;;;1728149;28;20279;-71
2023/05/19 08:40:47;;;;;;;7.18;4.25;;;17.70;97.20;;;;;;1728047;28;20470;-72
2023/05/19 08:41:37;;;;;;;6.70;3.85;;;17.70;97.20;;;;;;1728073;28;20208;-74
2023/05/19 08:42:29;;;;;;;6.03;3.47;;;17.70;97.20;;;;;;1726791;28;20270;-72
2023/05/19 08:43:20;;;;;;;8.77;4.00;;;17.70;97.20;;;;;;1727804;28;20200;-73
2023/05/19 08:44:12;;;;;;;9.27;3.90;;;17.70;97.20;;;;;;1727757;28;20203;-73
2023/05/19 08:45:03;;;;;;;9.63;3.95;;;17.70;97.20;;;;;;1727971;28;20825;-75
2023/05/19 08:45:55;;;;;;;5.95;3.40;;;17.70;97.20;;;;;;1728162;28;20203;-72
2023/05/19 08:46:47;;;;;;;4.93;3.40;;;17.80;97.20;;;;;;1727905;28;20240;-72
2023/05/19 08:47:40;;;;;;;7.78;3.95;;;17.80;97.20;;;;;;1727720;28;20208;-73
2023/05/19 08:48:34;;;;;;;6.57;3.25;;;17.90;97.20;;;;;;1727991;28;20262;-73
2023/05/19 08:49:27;;;;;;;7.03;4.15;;;17.90;97.20;;;;;;1727902;28;20205;-73
2023/05/19 08:50:24;;;;;;;6.25;3.30;;;18.00;97.20;;;;;;1727564;28;20200;-72
2023/05/19 08:51:25;;;;;;;6.72;3.90;;;18.00;97.20;;;;;;1727808;28;20188;-73
2023/05/19 08:52:27;;;;;;;7.38;4.10;;;18.10;97.20;;;;;;1727825;28;20220;-73
2023/05/19 08:53:21;;;;;;;6.25;3.80;;;18.10;97.20;;;;;;1727704;28;20193;-72
2023/05/19 08:54:16;;;;;;;4.70;3.40;;;18.10;97.20;;;;;;1727610;28;20574;-73
2023/05/19 08:55:11;;;;;;;4.47;3.78;;;18.10;97.20;;;;;;1727561;28;20679;-73
2023/05/19 08:56:09;;;;;;;6.93;3.88;;;18.10;97.20;;;;;;1727974;28;20185;-73
2023/05/19 08:57:01;;;;;;;6.15;3.78;;;18.10;97.20;;;;;;1727837;28;20224;-73
2023/05/19 08:57:53;;;;;;;8.98;3.80;;;18.20;97.20;;;;;;1727914;28;20295;-73
2023/05/19 08:58:44;;;;;;;8.05;3.65;;;18.20;97.20;;;;;;1727844;28;20205;-73
2023/05/19 08:59:37;;;;;;;9.05;4.22;;;18.20;97.20;;;;;;1726969;28;20293;-74
2023/05/19 09:00:29;;;;;;;7.72;3.60;;;18.20;97.20;;;;;;1727784;28;20205;-73
2023/05/19 09:01:23;;;;;;;7.63;4.05;;;18.30;97.20;;;;;;1727740;28;20200;-74
2023/05/19 09:02:14;;;;;;;9.07;3.70;;;18.30;97.20;;;;;;1727961;28;20553;-72
2023/05/19 09:03:06;;;;;;;8.68;3.88;;;18.30;97.20;;;;;;1727284;28;20834;-73
2023/05/19 09:03:57;;;;;;;10.15;4.28;;;18.30;97.20;;;;;;1727905;28;20216;-74
2023/05/19 09:04:50;;;;;;;6.80;3.67;;;18.40;97.20;;;;;;1727946;28;20201;-73
2023/05/19 09:05:41;;;;;;;9.55;4.38;;;18.40;97.20;;;;;;1727757;28;20455;-74
2023/05/19 09:06:33;;;;;;;5.80;3.53;;;18.40;97.20;;;;;;1727955;28;20200;-73
2023/05/19 09:07:26;;;;;;;7.20;3.70;;;18.40;97.20;;;;;;1727801;28;20295;-74
2023/05/19 09:08:18;;;;;;;6.20;3.67;;;18.40;97.20;;;;;;1727906;28;20243;-73
2023/05/19 09:09:09;;;;;;;5.18;3.78;;;18.40;97.20;;;;;;1727760;28;20197;-72
2023/05/19 09:10:00;;;;;;;5.50;3.60;;;18.40;97.20;;;;;;1727787;28;20200;-74
2023/05/19 09:10:51;;;;;;;7.13;3.30;;;18.40;97.20;;;;;;1727744;28;20675;-74
2023/05/19 09:11:46;;;;;;;5.90;4.00;;;18.40;97.20;;;;;;1727742;28;20565;-73
2023/05/19 09:12:36;;;;;;;5.97;3.60;;;18.40;97.20;;;;;;1726997;28;20471;-75
2023/05/19 09:13:28;;;;;;;7.80;4.43;;;18.50;97.20;;;;;;1727977;28;20279;-74
2023/05/19 09:14:19;;;;;;;5.88;3.78;;;18.50;97.20;;;;;;1727681;28;20835;-76
2023/05/19 09:15:12;;;;;;;5.90;4.43;;;18.50;97.20;;;;;;1727866;28;20666;-73
2023/05/19 09:16:03;;;;;;;6.70;3.83;;;18.50;97.20;;;;;;1727628;28;20196;-72
2023/05/19 09:16:55;;;;;;;8.48;3.83;;;18.50;97.20;;;;;;1727712;28;20230;-72
2023/05/19 09:17:46;;;;;;;5.55;3.60;;;18.50;97.20;;;;;;1727787;28;20695;-74
2023/05/19 09:18:39;;;;;;;7.85;4.10;;;18.50;97.20;;;;;;1727489;28;20208;-73
2023/05/19 09:19:31;;;;;;;7.38;4.32;;;18.50;97.20;;;;;;1727599;28;20200;-74
2023/05/19 09:20:21;;;;;;;8.85;3.90;;;18.50;97.20;;;;;;1726686;28;20209;-74
2023/05/19 09:21:13;;;;;;;5.93;3.47;;;18.50;97.20;;;;;;1727757;28;20660;-74
2023/05/19 09:22:05;;;;;;;7.78;4.20;;;18.40;97.20;;;;;;1727692;28;20208;-74
2023/05/19 09:22:59;;;;;;;7.50;3.88;;;18.40;97.20;;;;;;1727028;28;20308;-73
2023/05/19 09:23:51;;;;;;;6.95;3.58;;;18.30;97.20;;;;;;1727584;28;20208;-73
2023/05/19 09:24:43;;;;;;;6.15;3.55;;;18.30;97.20;;;;;;1727685;28;20213;-74
2023/05/19 09:25:35;;;;;;;7.47;3.15;;;18.20;97.20;;;;;;1727911;28;20209;-74
2023/05/19 09:26:37;;;;;;;7.40;4.30;;;18.20;97.20;;;;;;1727701;28;20211;-74
2023/05/19 09:27:32;;;;;;;9.05;4.22;;;18.10;97.20;;;;;;1727725;28;20274;-73
2023/05/19 09:28:26;;;;;;;5.35;3.85;;;18.10;97.20;;;;;;1727736;28;20279;-73
2023/05/19 09:29:17;;;;;;;9.00;3.53;;;18.10;97.20;;;;;;1727759;28;20201;-74
2023/05/19 09:30:09;;;;;;;7.35;3.88;;;18.00;97.20;;;;;;1727353;28;20707;-74
2023/05/19 09:31:02;;;;;;;7.47;3.70;;;18.00;97.20;;;;;;1727049;28;20643;-75
2023/05/19 09:31:54;;;;;;;8.15;4.40;;;18.00;97.20;;;;;;1726797;28;20200;-74